Time;durP1;ratioP1;P1;durP2;ratioP2;P2;SDS_P1;SDS_P2;PMS_P1;PMS_P2;Temp;Humidity;BMP_temperature;BMP_pressure;BME280_temperature;BME280_humidity;BME280_pressure;Samples;Min_cycle;Max_cycle;Signal;HPM_P1;HPM_P2
2023/02/16 00:01:24;;;;;;;71.65;39.20;;;;;;;10.63;62.70;102430.63;4963373;28;20110;-41
2023/02/16 00:03:51;;;;;;;71.65;39.72;;;;;;;10.85;61.89;102428.00;4966707;28;20035;-42
2023/02/16 00:06:16;;;;;;;73.30;39.97;;;;;;;10.81;62.05;102425.19;4963017;28;20039;-40
2023/02/16 00:08:44;;;;;;;75.53;39.10;;;;;;;10.86;62.00;102426.25;4966312;28;20485;-42
2023/02/16 00:14:08;;;;;;;74.65;38.80;;;;;;;10.67;62.58;102419.50;4949563;28;20035;-41
2023/02/16 00:16:34;;;;;;;75.50;38.97;;;;;;;10.78;62.20;102426.00;4962632;28;20034;-43
2023/02/16 00:18:59;;;;;;;74.15;39.65;;;;;;;10.74;62.18;102418.84;4965060;28;20054;-42
2023/02/16 00:21:24;;;;;;;72.93;39.33;;;;;;;10.67;62.73;102427.31;4964923;28;20493;-41
2023/02/16 00:23:50;;;;;;;75.60;39.17;;;;;;;10.65;62.53;102417.63;4969313;28;20521;-41
2023/02/16 00:26:19;;;;;;;76.63;39.63;;;;;;;10.70;62.71;102416.97;4965937;28;20101;-41
2023/02/16 00:28:48;;;;;;;68.88;37.67;;;;;;;10.62;62.67;102417.50;4968447;28;20516;-41
2023/02/16 00:31:22;;;;;;;75.57;38.78;;;;;;;10.72;62.37;102419.66;4964777;28;20050;-38
2023/02/16 00:33:48;;;;;;;;;;;;;;;10.56;63.19;102418.16;4969424;28;20023;-41
2023/02/16 00:36:14;;;;;;;69.47;36.30;;;;;;;10.62;62.69;102417.50;4964944;28;20454;-41
2023/02/16 00:38:40;;;;;;;69.32;37.63;;;;;;;10.64;62.09;102414.16;4968650;28;20045;-40
2023/02/16 00:41:49;;;;;;;70.30;38.25;;;;;;;10.68;62.42;102412.53;4969182;28;20030;-43
2023/02/16 00:44:00;;;;;;;75.07;38.65;;;;;;;10.61;61.81;102405.34;4966488;28;20456;-40
2023/02/16 00:46:25;;;;;;;76.40;40.25;;;;;;;10.73;61.84;102411.00;4962738;28;20489;-42
2023/02/16 00:48:50;;;;;;;75.05;41.53;;;;;;;10.58;62.58;102408.69;4963551;28;20066;-42
2023/02/16 00:51:16;;;;;;;76.90;40.95;;;;;;;10.65;61.77;102405.50;4960133;28;20027;-40
2023/02/16 00:53:41;;;;;;;75.43;40.83;;;;;;;10.59;62.13;102402.66;4963829;28;20367;-41
2023/02/16 00:56:12;;;;;;;76.05;40.10;;;;;;;10.65;62.28;102408.09;4964523;28;20031;-41
2023/02/16 00:58:38;;;;;;;71.10;39.20;;;;;;;10.71;62.31;102405.72;4959894;28;20051;-44
2023/02/16 01:01:14;;;;;;;76.50;39.20;;;;;;;10.76;62.33;102412.00;4963776;28;20409;-41
2023/02/16 01:03:41;;;;;;;68.75;37.17;;;;;;;10.65;62.20;102399.38;4962208;28;20042;-46
2023/02/16 01:11:38;;;;;;;74.00;37.85;;;;;;;10.61;62.32;102398.41;4960105;28;20097;-42
2023/02/16 01:14:04;;;;;;;70.30;37.90;;;;;;;10.73;62.24;102404.06;4963392;28;20035;-41
2023/02/16 01:16:39;;;;;;;73.35;38.00;;;;;;;10.62;62.56;102402.75;4960056;28;20455;-42
2023/02/16 01:19:05;;;;;;;71.82;37.80;;;;;;;10.59;62.37;102392.22;4966932;28;20046;-45
2023/02/16 01:21:30;;;;;;;68.85;37.47;;;;;;;10.77;61.54;102394.63;4966038;28;20043;-42
2023/02/16 01:23:56;;;;;;;67.70;37.15;;;;;;;10.88;61.60;102402.00;4972121;28;20517;-41
2023/02/16 01:26:21;;;;;;;67.60;37.55;;;;;;;10.86;61.32;102389.72;4965503;28;20129;-40
2023/02/16 01:28:47;;;;;;;74.10;38.97;;;;;;;10.80;61.70;102389.50;4967075;28;20039;-41
2023/02/16 01:31:14;;;;;;;72.20;38.72;;;;;;;10.71;62.21;102397.91;4965019;28;20508;-40
2023/02/16 01:33:40;;;;;;;74.22;38.60;;;;;;;10.71;62.43;102392.69;4963649;28;20031;-43
2023/02/16 01:36:26;;;;;;;73.40;38.13;;;;;;;10.35;62.95;102389.59;4966925;28;20400;-40
2023/02/16 01:38:51;;;;;;;71.90;37.42;;;;;;;10.80;61.68;102399.94;4963409;28;20042;-40
2023/02/16 01:41:51;;;;;;;71.63;38.03;;;;;;;10.73;62.18;102400.56;4962933;28;20408;-41
2023/02/16 01:44:22;;;;;;;73.05;37.55;;;;;;;10.80;61.55;102393.00;4963153;28;20052;-40
2023/02/16 01:47:26;;;;;;;71.50;37.25;;;;;;;10.72;62.12;102388.34;4966927;28;20035;-42
2023/02/16 01:49:52;;;;;;;67.82;37.28;;;;;;;10.64;61.83;102388.06;4962466;28;20039;-41
2023/02/16 01:52:32;;;;;;;70.20;37.50;;;;;;;10.92;61.15;102383.00;4963301;28;20306;-43
2023/02/16 01:55:06;;;;;;;71.70;38.20;;;;;;;10.78;61.65;102375.53;4965215;28;20058;-43
2023/02/16 01:57:48;;;;;;;72.70;37.35;;;;;;;10.91;60.91;102382.97;4962952;28;20038;-41
2023/02/16 02:00:13;;;;;;;70.65;38.05;;;;;;;10.73;61.68;102387.53;4962674;28;20110;-41
2023/02/16 02:02:48;;;;;;;70.07;38.42;;;;;;;10.82;61.40;102378.31;4969376;28;20437;-42
2023/02/16 02:05:35;;;;;;;67.75;37.20;;;;;;;10.84;61.28;102379.25;4970944;28;20055;-40
2023/02/16 02:08:21;;;;;;;70.20;37.22;;;;;;;10.99;60.23;102377.19;4971567;28;20035;-41
2023/02/16 02:11:26;;;;;;;75.25;37.85;;;;;;;10.85;61.19;102375.81;4962191;28;20090;-39
2023/02/16 02:14:05;;;;;;;71.85;37.80;;;;;;;10.78;61.24;102365.09;4963499;28;20367;-40
2023/02/16 02:16:30;;;;;;;69.18;37.33;;;;;;;10.89;60.65;102375.09;4963072;28;20050;-40
2023/02/16 02:18:55;;;;;;;69.20;37.78;;;;;;;10.86;60.75;102369.75;4966475;28;20506;-40
2023/02/16 02:24:53;;;;;;;73.85;38.40;;;;;;;10.70;61.65;102361.31;4965333;28;20046;-41
2023/02/16 02:27:24;;;;;;;72.85;39.00;;;;;;;10.89;60.87;102362.03;4969288;28;20110;-41
2023/02/16 02:30:02;;;;;;;71.40;39.75;;;;;;;10.95;60.74;102356.16;4962609;28;20126;-43
2023/02/16 02:32:49;;;;;;;75.75;38.63;;;;;;;11.06;60.50;102346.97;4961958;28;20047;-41
2023/02/16 02:35:37;;;;;;;78.60;40.33;;;;;;;10.98;60.19;102336.25;4962538;28;20042;-43
2023/02/16 02:38:12;;;;;;;73.22;38.55;;;;;;;10.93;60.74;102347.38;4962839;28;20050;-44
2023/02/16 02:41:02;;;;;;;78.22;39.83;;;;;;;11.00;60.78;102336.31;4961523;28;20177;-42
2023/02/16 02:43:41;;;;;;;76.38;40.38;;;;;;;11.00;60.59;102344.16;4961447;28;20038;-42
2023/02/16 02:46:12;;;;;;;74.50;39.22;;;;;;;11.20;59.92;102330.06;4966442;28;20039;-40
2023/02/16 02:48:37;;;;;;;75.85;39.38;;;;;;;11.03;60.56;102332.94;4963944;28;20031;-41
2023/02/16 03:02:12;;;;;;;78.80;37.92;;;;;;;11.10;60.20;102327.97;4963067;28;20065;-51
2023/02/16 03:04:38;;;;;;;71.93;38.00;;;;;;;10.98;59.96;102330.16;4967108;28;20039;-46
2023/02/16 03:07:05;;;;;;;75.20;38.28;;;;;;;10.69;61.22;102331.72;4966834;28;20138;-43
2023/02/16 03:09:30;;;;;;;70.90;38.20;;;;;;;10.85;60.69;102325.34;4963002;28;20034;-43
2023/02/16 03:14:40;;;;;;;;;;;;;;;10.93;60.66;102321.28;4968557;28;20034;-44
2023/02/16 03:31:06;;;;;;;73.47;38.10;;;;;;;11.43;58.66;102324.72;4967276;28;20408;-46
2023/02/16 03:33:33;;;;;;;73.63;38.80;;;;;;;11.29;59.27;102330.34;4963973;28;20027;-46
2023/02/16 03:35:59;;;;;;;73.80;38.88;;;;;;;11.16;59.14;102322.94;4967840;28;20049;-47
2023/02/16 03:38:25;;;;;;;72.85;38.38;;;;;;;11.25;59.29;102333.72;4964496;28;20047;-47
2023/02/16 03:40:51;;;;;;;72.57;39.00;;;;;;;11.36;58.86;102321.00;4967640;28;20387;-48
2023/02/16 03:43:16;;;;;;;70.22;38.13;;;;;;;11.45;58.46;102326.56;4967541;28;20098;-43
2023/02/16 03:45:43;;;;;;;71.30;38.13;;;;;;;11.35;58.83;102317.50;4966620;28;20035;-44
2023/02/16 03:48:09;;;;;;;74.97;39.58;;;;;;;11.23;59.18;102313.59;4966326;28;20050;-44
2023/02/16 03:50:34;;;;;;;74.75;38.55;;;;;;;11.31;58.98;102306.91;4961598;28;20034;-48
2023/02/16 03:53:08;;;;;;;73.15;37.72;;;;;;;11.39;58.52;102303.75;4964764;28;20438;-44
2023/02/16 03:55:34;;;;;;;72.82;37.83;;;;;;;11.34;58.48;102312.25;4961749;28;20050;-46
2023/02/16 03:58:00;;;;;;;75.57;38.20;;;;;;;11.27;58.72;102315.50;4964478;28;20137;-43
2023/02/16 04:00:26;;;;;;;70.25;37.95;;;;;;;11.30;58.93;102312.97;4964232;28;20037;-44
2023/02/16 04:02:51;;;;;;;76.47;39.95;;;;;;;11.16;59.14;102320.34;4967899;28;20126;-47
2023/02/16 04:05:16;;;;;;;74.28;38.17;;;;;;;11.36;58.75;102321.00;4962934;28;20054;-48
2023/02/16 04:07:42;;;;;;;72.07;37.72;;;;;;;11.56;58.06;102337.34;4966142;28;20093;-43
2023/02/16 04:10:07;;;;;;;68.10;37.97;;;;;;;11.16;59.14;102319.47;4966222;28;20039;-43
2023/02/16 04:12:35;;;;;;;68.53;38.55;;;;;;;11.34;58.59;102322.72;4961817;28;20039;-48
2023/02/16 04:15:03;;;;;;;71.22;37.28;;;;;;;11.35;58.71;102325.34;4965724;28;20042;-45
2023/02/16 04:17:29;;;;;;;74.32;37.95;;;;;;;11.27;59.24;102324.22;4961838;28;20047;-47
2023/02/16 04:19:54;;;;;;;71.35;37.90;;;;;;;11.44;58.36;102330.00;4965011;28;20045;-47
2023/02/16 04:22:19;;;;;;;71.57;37.35;;;;;;;11.58;58.34;102328.72;4960980;28;20061;-45
2023/02/16 04:24:44;;;;;;;72.10;38.42;;;;;;;10.95;59.65;102319.63;4964617;28;20039;-46
2023/02/16 04:27:10;;;;;;;72.88;37.58;;;;;;;11.34;59.02;102322.72;4962685;28;20138;-59
2023/02/16 04:29:35;;;;;;;70.38;37.45;;;;;;;11.31;58.61;102326.09;4963145;28;20081;-44
2023/02/16 04:32:00;;;;;;;67.70;36.65;;;;;;;11.53;58.08;102312.00;4964850;28;20093;-46
2023/02/16 04:34:26;;;;;;;69.00;37.25;;;;;;;11.70;57.65;102320.41;4960817;28;20034;-45
2023/02/16 04:36:51;;;;;;;72.30;37.78;;;;;;;11.65;57.97;102311.50;4964994;28;20039;-45
2023/02/16 04:39:16;;;;;;;71.47;38.20;;;;;;;11.29;58.66;102317.31;4960405;28;20184;-46
2023/02/16 04:41:42;;;;;;;69.80;37.10;;;;;;;11.35;58.91;102312.28;4965091;28;20421;-43
2023/02/16 04:44:07;;;;;;;69.72;37.38;;;;;;;11.48;58.55;102302.25;4965070;28;20567;-44
2023/02/16 04:46:32;;;;;;;71.88;37.97;;;;;;;11.41;58.34;102311.59;4961523;28;20379;-44
2023/02/16 04:48:58;;;;;;;69.90;36.70;;;;;;;11.35;58.63;102307.06;4964542;28;20461;-45
2023/02/16 04:51:23;;;;;;;66.93;37.00;;;;;;;11.36;58.70;102305.34;4962011;28;20118;-44
2023/02/16 04:53:49;;;;;;;67.88;36.97;;;;;;;11.42;58.69;102310.78;4965258;28;20062;-47
2023/02/16 04:56:14;;;;;;;68.78;37.05;;;;;;;11.35;58.63;102304.44;4962164;28;20039;-46
2023/02/16 04:58:40;;;;;;;73.30;37.97;;;;;;;11.30;59.18;102298.19;4964854;28;20453;-44
2023/02/16 05:01:05;;;;;;;69.45;36.97;;;;;;;11.46;58.75;102283.03;4964208;28;20031;-45
2023/02/16 05:03:31;;;;;;;70.07;37.38;;;;;;;11.51;58.61;102290.19;4960899;28;20396;-47
2023/02/16 05:05:56;;;;;;;69.57;37.80;;;;;;;11.34;58.84;102293.97;4964567;28;20043;-44
2023/02/16 05:08:21;;;;;;;73.38;37.58;;;;;;;11.44;58.60;102288.22;4961464;28;20359;-44
2023/02/16 05:14:40;;;;;;;72.28;37.17;;;;;;;11.40;58.77;102294.19;4965213;28;20043;-45
2023/02/16 05:16:21;;;;;;;69.07;37.17;;;;;;;11.47;58.95;102293.50;4960825;28;20050;-43
2023/02/16 05:18:46;;;;;;;69.45;36.97;;;;;;;11.44;58.67;102296.06;4964652;28;20105;-46
2023/02/16 05:21:30;;;;;;;69.78;37.97;;;;;;;11.58;58.66;102291.28;4960254;28;20400;-44
2023/02/16 05:23:56;;;;;;;68.03;36.65;;;;;;;11.35;59.31;102283.56;4964951;28;20035;-45
2023/02/16 05:26:21;;;;;;;69.30;37.53;;;;;;;11.42;59.16;102289.88;4960720;28;20429;-43
2023/02/16 05:28:47;;;;;;;69.25;37.47;;;;;;;11.54;58.82;102292.00;4964623;28;20065;-47
2023/02/16 05:31:12;;;;;;;68.35;35.83;;;;;;;11.69;58.66;102295.09;4943396;28;20046;-43
2023/02/16 05:33:37;;;;;;;69.78;37.28;;;;;;;11.66;58.72;102292.38;4963962;28;20448;-43
2023/02/16 05:36:03;;;;;;;69.85;37.47;;;;;;;11.53;58.88;102288.50;4964570;28;20471;-47
2023/02/16 05:38:28;;;;;;;72.80;38.33;;;;;;;11.62;58.61;102291.41;4960972;28;20096;-45
2023/02/16 05:40:53;;;;;;;68.00;37.50;;;;;;;11.67;59.06;102294.16;4964451;28;20035;-45
2023/02/16 05:43:19;;;;;;;70.18;37.95;;;;;;;11.72;58.96;102284.72;4960788;28;20505;-48
2023/02/16 05:45:44;;;;;;;74.65;39.05;;;;;;;11.43;59.87;102280.31;4964616;28;20777;-43
2023/02/16 05:48:09;;;;;;;70.22;38.13;;;;;;;11.57;59.66;102284.28;4964843;28;20035;-45
2023/02/16 05:50:35;;;;;;;67.20;37.25;;;;;;;11.70;59.43;102273.38;4960350;28;20536;-47
2023/02/16 05:53:00;;;;;;;72.05;37.60;;;;;;;11.58;59.72;102278.22;4965222;28;20126;-44
2023/02/16 05:55:25;;;;;;;70.63;37.58;;;;;;;11.65;59.84;102295.81;4960732;28;20035;-47
2023/02/16 05:57:51;;;;;;;70.80;37.97;;;;;;;11.56;60.17;102290.31;4964348;28;20137;-44
2023/02/16 06:00:16;;;;;;;68.95;36.90;;;;;;;11.56;59.84;102293.81;4960441;28;20524;-45
2023/02/16 06:02:41;;;;;;;74.68;39.38;;;;;;;11.30;60.47;102294.69;4964264;28;20062;-45
2023/02/16 06:05:07;;;;;;;72.43;38.03;;;;;;;11.44;60.17;102296.06;4964481;28;20130;-44
2023/02/16 06:07:32;;;;;;;71.93;38.92;;;;;;;11.52;60.20;102291.97;4961185;28;20441;-46
2023/02/16 06:09:57;;;;;;;73.80;37.95;;;;;;;11.56;60.00;102290.31;4968879;28;20038;-46
2023/02/16 06:12:23;;;;;;;74.43;39.00;;;;;;;11.40;60.35;102284.59;4965670;28;20089;-44
2023/02/16 06:14:48;;;;;;;79.07;39.65;;;;;;;11.46;60.39;102299.59;4969756;28;20493;-45
2023/02/16 06:17:13;;;;;;;72.20;38.50;;;;;;;11.54;60.17;102302.44;4965301;28;20042;-45
2023/02/16 06:19:39;;;;;;;78.75;39.30;;;;;;;11.21;60.94;102297.03;4972326;28;20505;-47
2023/02/16 06:22:04;;;;;;;71.53;38.88;;;;;;;11.21;61.68;102294.41;4970061;28;20097;-44
2023/02/16 06:24:29;;;;;;;69.97;37.95;;;;;;;11.43;61.03;102293.38;4965027;28;20039;-45
2023/02/16 06:26:55;;;;;;;73.32;39.38;;;;;;;11.56;60.72;102301.66;4967705;28;20038;-45
2023/02/16 06:29:20;;;;;;;72.28;39.25;;;;;;;11.49;60.83;102299.69;4964092;28;20309;-44
2023/02/16 06:31:45;;;;;;;71.50;39.60;;;;;;;11.49;60.98;102302.31;4967880;28;20409;-45
2023/02/16 06:34:11;;;;;;;74.20;39.72;;;;;;;11.57;60.83;102303.44;4964086;28;20035;-45
2023/02/16 06:36:36;;;;;;;75.32;39.65;;;;;;;11.55;60.62;102304.22;4967517;28;20034;-44
2023/02/16 06:39:02;;;;;;;74.53;38.75;;;;;;;11.50;61.11;102306.69;4967153;28;20382;-48
2023/02/16 06:41:31;;;;;;;72.88;38.35;;;;;;;11.55;61.08;102304.22;4964128;28;20049;-46
2023/02/16 06:44:00;;;;;;;73.70;39.05;;;;;;;11.39;61.51;102314.19;4950581;28;20050;-46
2023/02/16 06:46:26;;;;;;;72.88;39.20;;;;;;;11.39;61.49;102316.78;4964143;28;20101;-43
2023/02/16 06:48:52;;;;;;;75.13;39.80;;;;;;;11.45;61.53;102310.88;4969755;28;20031;-47
2023/02/16 06:51:18;;;;;;;74.40;39.78;;;;;;;11.45;61.43;102313.50;4967039;28;20254;-47
2023/02/16 06:53:43;;;;;;;75.05;39.10;;;;;;;11.54;61.01;102313.78;4969317;28;20039;-44
2023/02/16 06:56:08;;;;;;;79.35;41.20;;;;;;;11.18;61.98;102320.41;4952856;28;20090;-45
2023/02/16 06:58:33;;;;;;;72.15;37.85;;;;;;;11.65;60.87;102322.84;4966123;28;20581;-44
2023/02/16 07:00:59;;;;;;;72.05;38.22;;;;;;;11.73;60.92;102320.47;4969280;28;20492;-44
2023/02/16 07:03:24;;;;;;;73.07;38.60;;;;;;;11.77;60.68;102323.25;4965492;28;20125;-43
2023/02/16 07:05:50;;;;;;;76.47;39.53;;;;;;;11.78;60.62;102322.44;4969643;28;20039;-46
2023/02/16 07:08:15;;;;;;;71.00;38.65;;;;;;;11.31;61.21;102325.19;4966842;28;20131;-48
2023/02/16 07:10:44;;;;;;;74.30;38.75;;;;;;;11.52;61.63;102330.25;4970997;28;20469;-45
2023/02/16 07:13:10;;;;;;;72.32;38.53;;;;;;;11.60;61.52;102321.81;4970985;28;20380;-44
2023/02/16 07:15:35;;;;;;;72.30;38.97;;;;;;;11.43;62.13;102329.94;4965288;28;20580;-44
2023/02/16 07:18:00;;;;;;;73.28;38.88;;;;;;;11.59;61.33;102322.63;4968545;28;20516;-41
2023/02/16 07:20:27;;;;;;;74.20;39.70;;;;;;;11.51;62.14;102331.09;4946216;28;20544;-47
2023/02/16 07:22:52;;;;;;;68.18;37.65;;;;;;;11.80;61.03;102325.09;4951363;28;20051;-46
2023/02/16 07:25:18;;;;;;;70.82;38.85;;;;;;;11.75;60.85;102331.91;4964679;28;20089;-46
2023/02/16 07:27:43;;;;;;;68.05;39.13;;;;;;;11.68;61.47;102341.25;4970054;28;20105;-45
2023/02/16 07:30:09;;;;;;;74.00;39.38;;;;;;;11.69;61.69;102343.03;4971937;28;20047;-45
2023/02/16 07:32:35;;;;;;;73.80;38.90;;;;;;;11.50;61.57;102348.47;4966612;28;21240;-45
2023/02/16 07:35:00;;;;;;;70.25;38.03;;;;;;;11.71;61.27;102340.47;4969458;28;20035;-45
2023/02/16 07:37:26;;;;;;;72.72;40.13;;;;;;;11.71;61.22;102340.47;4964150;28;20102;-46
2023/02/16 07:39:52;;;;;;;71.05;38.78;;;;;;;11.81;61.29;102346.88;4948984;28;20035;-44
2023/02/16 07:42:17;;;;;;;73.95;38.45;;;;;;;11.74;61.06;102353.66;4962463;28;20409;-44
2023/02/16 07:44:43;;;;;;;71.63;39.03;;;;;;;11.60;61.80;102357.50;4967775;28;20050;-46
2023/02/16 07:47:08;;;;;;;70.63;38.15;;;;;;;11.75;61.34;102363.25;4968518;28;20562;-44
2023/02/16 07:49:33;;;;;;;72.47;38.30;;;;;;;11.79;61.14;102355.56;4963361;28;20054;-46
2023/02/16 07:51:59;;;;;;;75.70;38.78;;;;;;;11.42;61.98;102364.72;4965910;28;20065;-47
2023/02/16 07:54:24;;;;;;;75.80;39.05;;;;;;;11.42;62.26;102363.00;4944961;28;20563;-45
2023/02/16 07:56:49;;;;;;;72.38;39.53;;;;;;;11.48;62.17;102371.03;4965913;28;20125;-46
2023/02/16 07:59:15;;;;;;;76.70;39.35;;;;;;;11.91;60.80;102372.47;4961166;28;20042;-44
2023/02/16 08:01:41;;;;;;;74.85;39.95;;;;;;;12.00;60.72;102378.88;4966082;28;20035;-45
2023/02/16 08:04:06;;;;;;;73.03;40.10;;;;;;;11.57;63.19;102380.91;4965635;28;20394;-44
2023/02/16 08:06:34;;;;;;;75.50;40.22;;;;;;;11.37;64.10;102375.91;4963329;28;20150;-45
2023/02/16 08:08:59;;;;;;;73.47;39.65;;;;;;;11.51;64.13;102378.09;4965657;28;20037;-43
2023/02/16 08:11:24;;;;;;;77.60;41.53;;;;;;;11.24;64.54;102378.03;4962255;28;20043;-44
2023/02/16 08:13:50;;;;;;;75.85;39.95;;;;;;;11.24;64.84;102381.53;4965594;28;20035;-43
2023/02/16 08:16:22;;;;;;;76.75;39.83;;;;;;;11.08;65.92;102380.97;4961347;28;20035;-44
2023/02/16 08:18:48;;;;;;;68.40;38.38;;;;;;;11.20;66.07;102381.38;4964808;28;20043;-44
2023/02/16 08:21:16;;;;;;;67.88;37.53;;;;;;;11.13;66.98;102387.22;4960983;28;20105;-44
2023/02/16 08:23:46;;;;;;;67.57;36.60;;;;;;;11.18;67.07;102390.88;4965304;28;20581;-43
2023/02/16 08:26:13;;;;;;;65.45;36.47;;;;;;;11.30;66.47;102388.69;4959228;28;20481;-44
2023/02/16 08:28:44;;;;;;;63.85;36.42;;;;;;;11.08;67.52;102384.47;4972295;28;20042;-43
2023/02/16 08:31:15;;;;;;;67.03;36.50;;;;;;;10.75;68.30;102389.34;4982702;28;20037;-45
2023/02/16 08:33:41;;;;;;;64.70;36.03;;;;;;;11.10;68.22;102381.91;4978686;28;20034;-43
2023/02/16 08:36:10;;;;;;;64.95;35.45;;;;;;;11.01;68.33;102390.28;4983796;28;20056;-44
2023/02/16 08:38:36;;;;;;;63.08;36.05;;;;;;;11.26;67.28;102389.44;4980233;28;20038;-47
2023/02/16 08:41:01;;;;;;;63.42;35.88;;;;;;;11.26;67.82;102390.31;4984394;28;20101;-45
2023/02/16 08:43:27;;;;;;;67.18;37.03;;;;;;;11.20;68.25;102391.81;4980120;28;20046;-41
2023/02/16 08:45:52;;;;;;;63.78;37.15;;;;;;;11.23;68.41;102386.69;4985212;28;20090;-43
2023/02/16 08:48:18;;;;;;;62.85;36.63;;;;;;;11.44;67.84;102384.84;4962059;28;20058;-45
2023/02/16 08:51:05;;;;;;;65.47;36.58;;;;;;;11.42;67.87;102373.44;4964845;28;20034;-44
2023/02/16 08:53:32;;;;;;;60.60;36.10;;;;;;;11.25;68.23;102375.47;4960414;28;20047;-43
2023/02/16 08:55:58;;;;;;;66.53;36.47;;;;;;;11.55;68.15;102373.03;4965731;28;20038;-46
2023/02/16 08:58:26;;;;;;;65.07;35.67;;;;;;;11.66;67.88;102379.47;4969664;23;20042;-82
2023/02/16 09:01:03;;;;;;;62.20;35.97;;;;;;;11.66;67.64;102370.75;5005133;28;20054;-82
2023/02/16 09:03:28;;;;;;;65.43;36.78;;;;;;;11.67;67.57;102383.88;4968652;28;20033;-82
2023/02/16 09:06:00;;;;;;;64.32;35.38;;;;;;;11.58;68.17;102380.97;4989367;28;20034;-81
2023/02/16 09:08:25;;;;;;;63.90;36.42;;;;;;;11.84;67.42;102368.75;4976288;28;20050;-81
2023/02/16 09:11:18;;;;;;;59.88;35.28;;;;;;;12.02;67.14;102371.06;4991046;28;20519;-82
2023/02/16 09:13:50;;;;;;;61.40;35.95;;;;;;;11.69;67.79;102378.72;4980745;28;20043;-82
2023/02/16 09:16:21;;;;;;;65.28;36.15;;;;;;;11.72;67.92;102377.06;4975486;28;20551;-82
2023/02/16 09:18:47;;;;;;;62.08;35.42;;;;;;;11.84;67.91;102381.84;5003485;28;20046;-81
2023/02/16 09:21:16;;;;;;;63.45;35.63;;;;;;;11.93;68.00;102391.69;4986446;28;20077;-82
2023/02/16 09:23:46;;;;;;;63.08;35.25;;;;;;;12.07;67.38;102379.97;4984056;28;20514;-81
2023/02/16 09:26:11;;;;;;;63.45;35.33;;;;;;;12.09;67.23;102375.66;4976382;28;20046;-79
2023/02/16 09:28:38;;;;;;;61.85;35.92;;;;;;;12.07;67.18;102375.63;4998169;28;20046;-81
2023/02/16 09:31:22;;;;;;;60.83;35.35;;;;;;;12.06;67.10;102372.97;4985894;28;20039;-82
2023/02/16 09:33:48;;;;;;;62.78;35.33;;;;;;;12.39;66.83;102366.13;4975418;28;20046;-81
2023/02/16 09:36:13;;;;;;;59.95;35.42;;;;;;;12.47;66.76;102363.75;4969491;28;20052;-81
2023/02/16 09:38:39;;;;;;;61.83;34.67;;;;;;;12.48;66.67;102369.03;4995010;28;20046;-83
2023/02/16 09:41:39;;;;;;;58.47;34.70;;;;;;;12.77;66.04;102359.38;4993109;28;20038;-83
2023/02/16 09:44:29;;;;;;;58.10;34.63;;;;;;;12.96;65.73;102352.94;4989050;28;20042;-83
2023/02/16 09:46:57;;;;;;;59.20;35.05;;;;;;;13.10;64.77;102354.19;4991638;28;20048;-84
2023/02/16 09:49:27;;;;;;;57.17;34.90;;;;;;;13.07;64.98;102346.25;5008113;28;20577;-82
2023/02/16 09:52:16;;;;;;;62.35;35.53;;;;;;;12.52;65.91;102347.34;4996037;28;20046;-81
2023/02/16 09:54:48;;;;;;;59.60;35.25;;;;;;;13.14;65.07;102352.56;4995098;28;20084;-80
2023/02/16 10:00:22;;;;;;;64.63;37.13;;;;;;;13.09;65.33;102362.88;4992050;22;20047;-44
2023/02/16 10:03:17;;;;;;;60.30;35.65;;;;;;;13.42;64.72;102365.50;4983517;28;20038;-44
2023/02/16 10:05:51;;;;;;;62.95;36.63;;;;;;;13.35;64.70;102356.63;4982973;28;20050;-45
2023/02/16 10:08:26;;;;;;;;;;;;;;;13.21;64.66;102346.66;4984320;28;20038;-44
2023/02/16 10:10:54;;;;;;;61.25;35.90;;;;;;;13.42;64.58;102347.16;4987363;28;19913;-43
2023/02/16 10:13:30;;;;;;;58.50;34.65;;;;;;;13.46;64.59;102341.19;4983373;28;20034;-45
2023/02/16 10:16:00;;;;;;;65.93;36.25;;;;;;;13.58;64.44;102341.50;4987277;28;20042;-45
2023/02/16 10:18:32;;;;;;;62.05;36.35;;;;;;;13.52;64.49;102338.72;4983473;28;20548;-43
2023/02/16 10:21:03;;;;;;;68.63;35.65;;;;;;;13.42;65.03;102338.47;4970201;28;20046;-47
2023/02/16 10:23:54;;;;;;;62.85;36.67;;;;;;;13.66;64.58;102347.78;4983654;28;20038;-43
2023/02/16 10:26:41;;;;;;;59.40;36.50;;;;;;;13.69;64.16;102341.75;4984613;28;20045;-44
2023/02/16 10:29:15;;;;;;;62.65;36.13;;;;;;;13.71;64.62;102337.44;4988080;28;20113;-44
2023/02/16 10:31:50;;;;;;;60.58;35.95;;;;;;;13.97;64.28;102338.00;4984403;28;20045;-43
2023/02/16 10:34:18;;;;;;;;;;;;;;;14.03;64.04;102333.78;4986081;28;20039;-41
2023/02/16 10:36:59;;;;;;;59.80;34.75;;;;;;;13.98;64.31;102337.16;4988881;28;20376;-43
2023/02/16 10:39:49;;;;;;;66.22;36.00;;;;;;;14.19;64.21;102345.53;4984986;28;20097;-46
2023/02/16 10:42:26;;;;;;;57.90;35.53;;;;;;;14.18;64.23;102343.75;4984734;28;20500;-46
2023/02/16 10:45:12;;;;;;;62.28;35.63;;;;;;;14.09;63.45;102346.16;4987804;28;20070;-45
2023/02/16 10:47:41;;;;;;;58.80;35.00;;;;;;;14.18;63.47;102349.00;4942938;28;20143;-44
2023/02/16 10:50:24;;;;;;;59.03;36.05;;;;;;;14.09;63.65;102346.16;4986458;28;20038;-47
2023/02/16 10:52:52;;;;;;;61.80;35.92;;;;;;;14.33;63.04;102357.22;4983155;28;20061;-46
2023/02/16 10:55:18;;;;;;;60.67;35.13;;;;;;;14.29;62.83;102357.97;4981248;28;20048;-45
2023/02/16 10:57:51;;;;;;;63.05;36.15;;;;;;;14.32;63.01;102354.56;4985670;28;20038;-44
2023/02/16 11:00:26;;;;;;;63.00;37.15;;;;;;;13.84;64.29;102347.34;4985629;28;20034;-45
2023/02/16 11:02:52;;;;;;;64.32;35.85;;;;;;;14.13;63.74;102342.75;4982796;28;20105;-45
2023/02/16 11:05:37;;;;;;;64.15;37.80;;;;;;;14.00;63.99;102340.72;4983284;28;20116;-46
2023/02/16 11:08:05;;;;;;;67.43;36.75;;;;;;;14.32;63.28;102330.94;4987731;28;20042;-44
2023/02/16 11:10:35;;;;;;;62.88;37.33;;;;;;;14.38;62.65;102331.09;4983363;28;20045;-46
2023/02/16 11:13:01;;;;;;;67.88;38.22;;;;;;;14.50;62.91;102336.59;4969016;28;20197;-48
2023/02/16 11:15:28;;;;;;;63.45;37.58;;;;;;;14.75;62.93;102331.00;4982355;28;20054;-45
2023/02/16 11:17:55;;;;;;;60.92;36.67;;;;;;;14.83;62.02;102329.38;4986424;28;20201;-44
2023/02/16 11:20:31;;;;;;;62.63;37.35;;;;;;;14.81;61.89;102328.47;4983407;28;20045;-45
2023/02/16 11:23:23;;;;;;;64.43;38.15;;;;;;;14.82;61.67;102324.97;4987584;28;20096;-45
2023/02/16 11:26:04;;;;;;;62.13;37.10;;;;;;;15.07;60.85;102321.06;4983472;28;20070;-48
2023/02/16 11:28:37;;;;;;;60.63;35.58;;;;;;;14.92;61.15;102326.94;4983408;28;20433;-44
2023/02/16 11:31:11;;;;;;;59.53;35.53;;;;;;;15.08;60.65;102320.22;4987360;28;20485;-46
2023/02/16 11:33:39;;;;;;;57.55;35.30;;;;;;;15.14;60.45;102319.44;4982820;28;20026;-43
2023/02/16 11:36:28;;;;;;;59.25;35.80;;;;;;;14.82;61.61;102321.50;4986837;28;20097;-43
2023/02/16 11:39:18;;;;;;;61.53;33.47;;;;;;;14.76;61.89;102318.75;4970292;28;20049;-45
2023/02/16 11:41:53;;;;;;;52.53;32.05;;;;;;;14.94;61.80;102306.81;4980845;28;20046;-47
2023/02/16 11:44:31;;;;;;;53.22;31.88;;;;;;;14.92;60.87;102303.31;4981521;28;20366;-43
2023/02/16 11:46:59;;;;;;;57.53;33.30;;;;;;;14.69;61.34;102311.59;4985882;28;20073;-44
2023/02/16 11:49:32;;;;;;;52.38;32.25;;;;;;;14.50;62.00;102308.63;4981071;28;20379;-46
2023/02/16 11:51:58;;;;;;;54.47;31.60;;;;;;;14.72;61.68;102299.41;4985106;28;20049;-45
2023/02/16 11:54:23;;;;;;;50.75;31.73;;;;;;;14.16;62.90;102291.25;4981714;28;20062;-45
2023/02/16 11:57:02;;;;;;;52.15;32.03;;;;;;;14.87;62.22;102291.84;4985304;28;20034;-45
2023/02/16 11:59:31;;;;;;;51.88;30.75;;;;;;;14.77;61.04;102287.25;4980782;28;20054;-41
2023/02/16 12:02:25;;;;;;;49.85;30.58;;;;;;;15.17;61.12;102275.72;4968252;28;20113;-46
2023/02/16 12:05:09;;;;;;;51.85;30.83;;;;;;;15.39;60.68;102253.31;4980824;28;20152;-43
2023/02/16 12:07:49;;;;;;;46.65;30.33;;;;;;;15.68;60.23;102265.16;4980870;28;20343;-46